createdAt,value
2019-02-06T00:00:56.618Z,102300.45
2019-02-06T00:03:23.349Z,102295.67
2019-02-06T00:05:50.219Z,102290.05
2019-02-06T00:08:17.067Z,102295.98
2019-02-06T00:10:43.784Z,102286.52
2019-02-06T00:13:10.507Z,102297.49
2019-02-06T00:15:37.366Z,102304.90
2019-02-06T00:18:04.539Z,102305.84
2019-02-06T00:20:32.107Z,102305.37
2019-02-06T00:22:59.267Z,102305.73
2019-02-06T00:25:26.101Z,102305.30
2019-02-06T00:27:52.830Z,102307.27
2019-02-06T00:32:54.264Z,102300.56
2019-02-06T00:35:25.750Z,102303.52
2019-02-06T00:37:50.041Z,102308.49
2019-02-06T00:40:16.710Z,102307.09
2019-02-06T00:42:43.465Z,102309.45
2019-02-06T00:45:10.286Z,102305.01
2019-02-06T00:47:37.128Z,102309.33
2019-02-06T00:50:04.889Z,102310.50
2019-02-06T00:52:32.308Z,102314.05
2019-02-06T00:54:59.176Z,102305.37
2019-02-06T00:57:25.903Z,102307.19
2019-02-06T00:59:52.749Z,102300.58
2019-02-06T01:02:19.458Z,102302.46
2019-02-06T01:04:46.467Z,102303.29
2019-02-06T01:07:13.666Z,102305.31
2019-02-06T01:09:40.446Z,102306.62
2019-02-06T01:12:09.167Z,102305.08
2019-02-06T01:14:36.184Z,102310.97
2019-02-06T01:17:03.066Z,102311.12
2019-02-06T01:19:42.895Z,102304.43
2019-02-06T01:22:09.733Z,102308.08
2019-02-06T01:24:36.561Z,102305.78
2019-02-06T01:27:03.572Z,102302.77
2019-02-06T01:29:30.715Z,102296.91
2019-02-06T01:31:57.438Z,102302.77
2019-02-06T01:34:24.560Z,102305.37
2019-02-06T01:36:51.409Z,102302.53
2019-02-06T01:39:18.402Z,102303.59
2019-02-06T01:41:45.115Z,102303.17
2019-02-06T01:44:12.018Z,102301.43
2019-02-06T01:46:39.118Z,102305.44
2019-02-06T01:49:06.418Z,102309.20
2019-02-06T01:51:33.107Z,102313.12
2019-02-06T01:54:00.201Z,102312.17
2019-02-06T01:56:27.186Z,102319.39
2019-02-06T01:58:54.028Z,102316.13
2019-02-06T02:01:20.871Z,102313.77
2019-02-06T02:03:47.739Z,102309.92
2019-02-06T02:06:14.527Z,102308.03
2019-02-06T02:11:33.969Z,102305.67
2019-02-06T02:14:00.797Z,102308.67
2019-02-06T02:16:27.711Z,102305.91
2019-02-06T02:18:54.790Z,102300.05
2019-02-06T02:21:21.872Z,102305.33
2019-02-06T02:23:48.591Z,102301.53
2019-02-06T02:26:15.295Z,102302.29
2019-02-06T02:28:42.005Z,102297.53
2019-02-06T02:33:56.892Z,102294.03
2019-02-06T02:36:23.623Z,102302.30
2019-02-06T02:38:50.439Z,102306.56
2019-02-06T02:41:17.242Z,102312.13
2019-02-06T02:43:44.001Z,102300.58
2019-02-06T02:46:10.619Z,102300.58
2019-02-06T02:48:37.376Z,102303.06
2019-02-06T02:51:04.101Z,102305.61
2019-02-06T02:53:32.746Z,102309.67
2019-02-06T02:55:59.590Z,102308.85
2019-02-06T02:58:26.317Z,102311.09
2019-02-06T03:01:12.837Z,102297.38
2019-02-06T03:03:59.249Z,102294.31
2019-02-06T03:06:28.552Z,102294.14
2019-02-06T03:08:55.010Z,102297.86
2019-02-06T03:11:21.838Z,102298.56
2019-02-06T03:13:48.726Z,102294.14
2019-02-06T03:16:15.560Z,102296.08
2019-02-06T03:18:42.470Z,102291.54
2019-02-06T03:21:09.379Z,102285.69
2019-02-06T03:23:36.535Z,102280.78
2019-02-06T03:26:03.355Z,102279.41
2019-02-06T03:28:30.205Z,102276.17
2019-02-06T03:30:56.936Z,102269.00
2019-02-06T03:33:23.916Z,102272.13
2019-02-06T03:35:50.856Z,102271.88
2019-02-06T03:38:17.990Z,102273.81
2019-02-06T03:40:44.810Z,102273.13
2019-02-06T03:43:11.594Z,102280.72
2019-02-06T03:45:38.419Z,102270.87
2019-02-06T03:48:05.576Z,102276.48
2019-02-06T03:50:32.512Z,102276.02
2019-02-06T03:52:59.656Z,102274.05
2019-02-06T03:55:26.430Z,102266.83
2019-02-06T03:57:53.608Z,102275.20
2019-02-06T04:00:20.759Z,102270.05
2019-02-06T04:02:47.696Z,102270.25
2019-02-06T04:05:14.610Z,102271.16
2019-02-06T04:07:41.478Z,102263.79
2019-02-06T04:10:09.714Z,102266.50
2019-02-06T04:12:36.667Z,102262.40
2019-02-06T04:15:44.543Z,102266.27
2019-02-06T04:18:11.598Z,102266.15
2019-02-06T04:20:38.322Z,102258.66
2019-02-06T04:23:05.051Z,102258.16
2019-02-06T04:25:32.540Z,102255.65
2019-02-06T04:27:59.367Z,102259.90
2019-02-06T04:30:26.099Z,102259.03
2019-02-06T04:32:52.852Z,102248.03
2019-02-06T04:35:19.563Z,102252.14
2019-02-06T04:37:46.381Z,102251.89
2019-02-06T04:40:15.752Z,102257.27
2019-02-06T04:42:42.471Z,102256.17
2019-02-06T04:45:09.563Z,102260.66
2019-02-06T04:47:36.770Z,102258.54
2019-02-06T04:50:04.946Z,102263.91
2019-02-06T04:52:31.677Z,102263.17
2019-02-06T04:54:58.453Z,102261.52
2019-02-06T04:57:25.167Z,102255.22
2019-02-06T04:59:52.019Z,102247.21
2019-02-06T05:02:19.175Z,102251.28
2019-02-06T05:04:45.888Z,102245.23
2019-02-06T05:07:19.332Z,102241.47
2019-02-06T05:09:41.677Z,102236.45
2019-02-06T05:12:09.660Z,102237.41
2019-02-06T05:14:37.093Z,102241.73
2019-02-06T05:17:03.998Z,102239.77
2019-02-06T05:19:30.825Z,102237.58
2019-02-06T05:21:59.445Z,102242.59
2019-02-06T05:24:26.323Z,102237.58
2019-02-06T05:26:53.107Z,102245.08
2019-02-06T05:29:20.108Z,102254.86
2019-02-06T05:31:46.955Z,102255.75
2019-02-06T05:34:14.500Z,102251.15
2019-02-06T05:36:41.132Z,102257.11
2019-02-06T05:39:08.045Z,102249.38
2019-02-06T05:41:35.375Z,102248.83
2019-02-06T05:44:02.096Z,102247.19
2019-02-06T05:46:28.942Z,102242.25
2019-02-06T05:48:55.568Z,102243.95
2019-02-06T05:51:22.679Z,102247.73
2019-02-06T05:53:49.431Z,102240.58
2019-02-06T05:56:16.754Z,102248.96
2019-02-06T05:58:43.747Z,102241.83
2019-02-06T06:01:11.244Z,102242.92
2019-02-06T06:03:37.972Z,102244.03
2019-02-06T06:06:04.788Z,102246.78
2019-02-06T06:08:31.787Z,102240.69
2019-02-06T06:10:58.521Z,102246.63
2019-02-06T06:13:25.352Z,102241.48
2019-02-06T06:15:52.122Z,102244.36
2019-02-06T06:18:21.931Z,102241.70
2019-02-06T06:20:48.126Z,102243.58
2019-02-06T06:23:15.091Z,102240.04
2019-02-06T06:25:41.977Z,102240.31
2019-02-06T06:28:08.766Z,102241.09
2019-02-06T06:30:35.822Z,102248.48
2019-02-06T06:33:02.940Z,102248.69
2019-02-06T06:35:29.766Z,102245.52
2019-02-06T06:38:02.425Z,102243.13
2019-02-06T06:40:25.584Z,102232.23
2019-02-06T06:42:52.413Z,102236.55
2019-02-06T06:45:20.880Z,102239.55
2019-02-06T06:47:47.739Z,102244.25
2019-02-06T06:50:16.797Z,102241.59
2019-02-06T06:52:43.880Z,102237.70
2019-02-06T06:55:11.296Z,102239.17
2019-02-06T06:57:38.718Z,102233.34
2019-02-06T07:00:08.726Z,102230.41
2019-02-06T07:02:36.015Z,102230.52
2019-02-06T07:05:05.557Z,102226.30
2019-02-06T07:07:32.234Z,102229.77
2019-02-06T07:09:58.949Z,102225.08
2019-02-06T07:12:25.709Z,102226.88
2019-02-06T07:14:53.360Z,102224.23
2019-02-06T07:17:20.419Z,102217.86
2019-02-06T07:19:47.053Z,102226.48
2019-02-06T07:22:14.232Z,102223.91
2019-02-06T07:24:41.624Z,102218.97
2019-02-06T07:27:08.509Z,102213.23
2019-02-06T07:29:47.915Z,102209.16
2019-02-06T07:32:14.888Z,102210.34
2019-02-06T07:34:41.750Z,102200.90
2019-02-06T07:37:08.710Z,102201.71
2019-02-06T07:39:35.433Z,102198.35
2019-02-06T07:42:02.203Z,102182.23
2019-02-06T07:44:29.328Z,102180.86
2019-02-06T07:46:56.213Z,102189.07
2019-02-06T07:49:22.941Z,102184.42
2019-02-06T07:51:50.928Z,102183.04
2019-02-06T07:54:18.352Z,102186.66
2019-02-06T07:56:45.306Z,102199.75
2019-02-06T07:59:12.188Z,102198.48
2019-02-06T08:01:39.347Z,102198.38
2019-02-06T08:04:06.216Z,102195.00
2019-02-06T08:06:33.007Z,102205.59
2019-02-06T08:09:00.157Z,102203.88
2019-02-06T08:11:27.153Z,102211.02
2019-02-06T08:13:54.091Z,102206.47
2019-02-06T08:16:20.813Z,102212.70
2019-02-06T08:18:48.025Z,102213.90
2019-02-06T08:21:14.922Z,102219.47
2019-02-06T08:23:41.828Z,102209.83
2019-02-06T08:26:08.653Z,102215.73
2019-02-06T08:28:38.385Z,102208.30
2019-02-06T08:31:05.630Z,102204.09
2019-02-06T08:33:32.523Z,102206.69
2019-02-06T08:35:59.545Z,102203.93
2019-02-06T08:38:26.433Z,102203.07
2019-02-06T08:40:53.876Z,102195.66
2019-02-06T08:43:20.878Z,102192.62
2019-02-06T08:45:47.852Z,102191.04
2019-02-06T08:48:14.738Z,102195.87
2019-02-06T08:50:41.674Z,102186.81
2019-02-06T08:53:08.563Z,102188.19
2019-02-06T08:55:35.336Z,102192.93
2019-02-06T08:58:02.354Z,102190.55
2019-02-06T09:00:31.291Z,102176.45
2019-02-06T09:02:58.270Z,102186.86
2019-02-06T09:05:27.162Z,102178.47
2019-02-06T09:07:54.019Z,102164.38
2019-02-06T09:10:21.892Z,102157.88
2019-02-06T09:13:29.780Z,102155.20
2019-02-06T09:15:56.817Z,102151.45
2019-02-06T09:18:24.024Z,102150.50
2019-02-06T09:20:52.820Z,102153.19
2019-02-06T09:23:20.215Z,102156.12
2019-02-06T09:25:47.503Z,102165.05
2019-02-06T09:28:14.450Z,102157.75
2019-02-06T09:30:41.190Z,102154.59
2019-02-06T09:33:07.977Z,102156.25
2019-02-06T09:35:34.991Z,102151.63
2019-02-06T09:38:01.836Z,102149.34
2019-02-06T09:40:29.481Z,102148.42
2019-02-06T09:42:56.431Z,102142.42
2019-02-06T09:46:04.484Z,102144.94
2019-02-06T09:48:31.424Z,102141.71
2019-02-06T09:50:58.531Z,102137.64
2019-02-06T09:53:25.314Z,102133.16
2019-02-06T09:55:53.361Z,102130.42
2019-02-06T09:58:20.804Z,102137.12
2019-02-06T10:00:47.625Z,102142.03
2019-02-06T10:03:14.513Z,102144.23
2019-02-06T10:05:41.521Z,102139.20
2019-02-06T10:08:08.252Z,102149.16
2019-02-06T10:10:35.067Z,102143.48
2019-02-06T10:13:01.808Z,102145.71
2019-02-06T10:15:33.481Z,102142.88
2019-02-06T10:18:02.369Z,102135.12
2019-02-06T10:20:34.562Z,102131.33
2019-02-06T10:23:01.400Z,102127.35
2019-02-06T10:25:28.478Z,102132.13
2019-02-06T10:27:55.603Z,102124.94
2019-02-06T10:30:27.863Z,102105.06
2019-02-06T10:32:55.146Z,102099.95
2019-02-06T10:35:22.052Z,102104.56
2019-02-06T10:40:43.965Z,102093.55
2019-02-06T10:43:10.703Z,102083.46
2019-02-06T10:45:38.279Z,102082.06
2019-02-06T10:48:05.243Z,102085.77
2019-02-06T10:50:34.538Z,102071.82
2019-02-06T10:53:01.564Z,102076.77
2019-02-06T10:55:28.798Z,102070.44
2019-02-06T10:57:55.655Z,102051.56
2019-02-06T11:01:05.162Z,102056.28
2019-02-06T11:03:31.985Z,102051.29
2019-02-06T11:05:58.823Z,102051.45
2019-02-06T11:08:25.617Z,102039.39
2019-02-06T11:10:52.966Z,102032.14
2019-02-06T11:13:19.708Z,102030.88
2019-02-06T11:15:46.951Z,102022.67
2019-02-06T11:18:13.771Z,102025.63
2019-02-06T11:21:22.177Z,102017.67
2019-02-06T11:23:48.891Z,102019.63
2019-02-06T11:26:15.641Z,102016.02
2019-02-06T11:28:42.435Z,102016.05
2019-02-06T11:31:09.586Z,102014.02
2019-02-06T11:33:36.336Z,102015.17
2019-02-06T11:36:03.391Z,102005.84
2019-02-06T11:38:32.033Z,102006.23
2019-02-06T11:40:58.772Z,102011.17
2019-02-06T11:43:25.906Z,102006.27
2019-02-06T11:45:52.761Z,102002.37
2019-02-06T11:48:19.503Z,102002.47
2019-02-06T11:50:46.410Z,101989.53
2019-02-06T11:53:32.760Z,101988.80
2019-02-06T11:55:59.652Z,101981.11
2019-02-06T11:58:26.500Z,101977.85
2019-02-06T12:01:13.053Z,101972.78
2019-02-06T12:03:39.963Z,101973.78
2019-02-06T12:06:08.715Z,101969.37
2019-02-06T12:08:35.583Z,101965.66
2019-02-06T12:11:23.879Z,101964.70
2019-02-06T12:13:53.523Z,101965.14
2019-02-06T12:16:20.293Z,101949.59
2019-02-06T12:18:48.993Z,101940.67
2019-02-06T12:21:17.884Z,101929.91
2019-02-06T12:23:44.498Z,101930.11
2019-02-06T12:26:11.357Z,101924.61
2019-02-06T12:28:38.339Z,101914.30
2019-02-06T12:31:05.267Z,101922.25
2019-02-06T12:33:32.054Z,101919.20
2019-02-06T12:35:58.976Z,101909.21
2019-02-06T12:38:28.051Z,101914.08
2019-02-06T12:40:54.988Z,101909.05
2019-02-06T12:43:21.803Z,101904.03
2019-02-06T12:45:48.670Z,101907.29
2019-02-06T12:48:15.413Z,101904.09
2019-02-06T12:50:42.384Z,101899.18
2019-02-06T12:53:09.236Z,101888.48
2019-02-06T12:55:36.900Z,101883.72
2019-02-06T12:58:45.113Z,101877.30
2019-02-06T13:01:11.840Z,101876.70
2019-02-06T13:03:38.715Z,101878.91
2019-02-06T13:06:05.794Z,101873.45
2019-02-06T13:08:32.827Z,101873.98
2019-02-06T13:10:59.765Z,101863.19
2019-02-06T13:13:26.845Z,101865.82
2019-02-06T13:15:53.684Z,101867.99
2019-02-06T13:18:20.551Z,101861.34
2019-02-06T13:20:47.550Z,101859.50
2019-02-06T13:23:14.490Z,101857.36
2019-02-06T13:25:41.362Z,101857.31
2019-02-06T13:28:08.436Z,101858.11
2019-02-06T13:30:35.523Z,101863.20
2019-02-06T13:33:02.354Z,101846.82
2019-02-06T13:35:29.593Z,101843.97
2019-02-06T13:37:56.732Z,101842.26
2019-02-06T13:40:24.938Z,101834.67
2019-02-06T13:42:51.795Z,101838.53
2019-02-06T13:45:21.036Z,101844.66
2019-02-06T13:47:48.067Z,101838.55
2019-02-06T13:50:22.182Z,101830.16
2019-02-06T13:52:43.886Z,101840.64
2019-02-06T13:55:11.005Z,101828.69
2019-02-06T13:57:38.031Z,101821.80
2019-02-06T14:00:29.583Z,101823.02
2019-02-06T14:02:57.122Z,101819.80
2019-02-06T14:05:25.763Z,101815.98
2019-02-06T14:07:55.246Z,101822.86
2019-02-06T14:12:57.366Z,101816.35
2019-02-06T14:16:05.772Z,101815.03
2019-02-06T14:18:45.368Z,101807.49
2019-02-06T14:21:12.152Z,101803.67
2019-02-06T14:24:18.160Z,101805.16
2019-02-06T14:27:09.521Z,101800.17
2019-02-06T14:30:06.643Z,101789.55
2019-02-06T14:32:56.705Z,101790.55
2019-02-06T14:35:29.520Z,101785.77
2019-02-06T14:38:24.656Z,101785.23
2019-02-06T14:41:30.666Z,101777.38
2019-02-06T14:44:36.952Z,101779.08
2019-02-06T14:47:43.247Z,101765.44
2019-02-06T14:50:49.595Z,101769.09
2019-02-06T14:53:55.678Z,101770.48
2019-02-06T14:56:31.087Z,101777.22
2019-02-06T14:59:26.105Z,101776.40
2019-02-06T15:02:31.994Z,101775.22
2019-02-06T15:05:23.299Z,101772.18
2019-02-06T15:08:29.356Z,101778.15
2019-02-06T15:11:22.344Z,101768.96
2019-02-06T15:14:27.841Z,101766.64
2019-02-06T15:17:21.737Z,101766.33
2019-02-06T15:20:27.678Z,101761.86
2019-02-06T15:23:17.494Z,101762.25
2019-02-06T15:26:23.370Z,101755.89
2019-02-06T15:29:29.364Z,101750.69
2019-02-06T15:32:35.221Z,101737.06
2019-02-06T15:35:41.210Z,101743.05
2019-02-06T15:38:19.921Z,101740.94
2019-02-06T15:41:31.093Z,101733.77
2019-02-06T15:44:34.447Z,101729.62
2019-02-06T15:47:42.335Z,101729.69
2019-02-06T15:50:41.887Z,101721.34
2019-02-06T15:53:48.461Z,101722.19
2019-02-06T15:56:55.729Z,101723.07
2019-02-06T16:00:01.749Z,101718.32
2019-02-06T16:02:51.907Z,101728.98
2019-02-06T16:06:18.036Z,101723.13
2019-02-06T16:09:24.634Z,101718.66
2019-02-06T16:12:30.652Z,101716.09
2019-02-06T16:15:21.077Z,101712.08
2019-02-06T16:18:12.672Z,101701.64
2019-02-06T16:20:52.409Z,101701.14
2019-02-06T16:23:51.236Z,101699.06
2019-02-06T16:26:37.688Z,101691.72
2019-02-06T16:29:43.725Z,101696.47
2019-02-06T16:32:33.559Z,101695.97
2019-02-06T16:35:39.887Z,101689.01
2019-02-06T16:38:45.764Z,101688.66
2019-02-06T16:41:38.691Z,101685.56
2019-02-06T16:44:44.565Z,101683.91
2019-02-06T16:47:45.037Z,101681.16
2019-02-06T16:50:45.813Z,101675.54
2019-02-06T16:53:36.056Z,101677.99
2019-02-06T16:56:41.937Z,101666.28
2019-02-06T16:59:36.366Z,101671.07
2019-02-06T17:02:42.381Z,101660.66
2019-02-06T17:05:48.653Z,101660.73
2019-02-06T17:08:43.382Z,101660.73
2019-02-06T17:11:49.387Z,101652.02
2019-02-06T17:14:55.266Z,101648.95
2019-02-06T17:17:29.519Z,101658.02
2019-02-06T17:20:20.526Z,101654.13
2019-02-06T17:23:26.817Z,101645.89
2019-02-06T17:26:32.702Z,101661.13
2019-02-06T17:29:38.674Z,101660.05
2019-02-06T17:32:44.551Z,101653.70
2019-02-06T17:35:38.004Z,101634.64
2019-02-06T17:38:37.660Z,101639.92
2019-02-06T17:41:26.761Z,101644.31
2019-02-06T17:44:32.888Z,101645.69
2019-02-06T17:47:24.024Z,101645.69
2019-02-06T17:50:30.273Z,101648.22
2019-02-06T17:53:29.194Z,101638.16
2019-02-06T17:55:56.549Z,101633.20
2019-02-06T17:58:24.081Z,101625.78
2019-02-06T18:01:30.518Z,101617.06
2019-02-06T18:04:19.061Z,101614.56
2019-02-06T18:07:27.108Z,101611.80
2019-02-06T18:09:53.990Z,101618.89
2019-02-06T18:12:26.260Z,101611.97
2019-02-06T18:14:49.626Z,101611.97
2019-02-06T18:17:16.917Z,101608.45
2019-02-06T18:19:43.671Z,101611.64
2019-02-06T18:22:10.593Z,101608.59
2019-02-06T18:24:37.520Z,101604.30
2019-02-06T18:27:04.872Z,101608.48
2019-02-06T18:29:31.787Z,101604.06
2019-02-06T18:32:00.241Z,101599.58
2019-02-06T18:34:27.090Z,101596.13
2019-02-06T18:36:56.314Z,101599.58
2019-02-06T18:39:23.439Z,101600.48
2019-02-06T18:41:50.509Z,101604.91
2019-02-06T18:44:17.686Z,101615.84
2019-02-06T18:46:46.444Z,101610.77
2019-02-06T18:49:13.186Z,101608.91
2019-02-06T18:51:41.151Z,101612.82
2019-02-06T18:54:29.717Z,101605.47
2019-02-06T18:56:56.541Z,101598.50
2019-02-06T18:59:23.330Z,101597.04
2019-02-06T19:01:50.103Z,101601.37
2019-02-06T19:04:19.126Z,101600.52
2019-02-06T19:06:46.782Z,101597.69
2019-02-06T19:09:14.837Z,101591.95
2019-02-06T19:11:41.750Z,101590.14
2019-02-06T19:14:08.659Z,101579.73
2019-02-06T19:16:37.343Z,101576.41
2019-02-06T19:19:04.771Z,101576.70
2019-02-06T19:21:31.531Z,101570.75
2019-02-06T19:23:58.891Z,101567.30
2019-02-06T19:26:26.262Z,101566.42
2019-02-06T19:28:53.600Z,101563.20
2019-02-06T19:31:20.477Z,101561.58
2019-02-06T19:33:47.636Z,101560.80
2019-02-06T19:36:14.844Z,101562.07
2019-02-06T19:38:41.894Z,101557.12
2019-02-06T19:41:09.108Z,101550.65
2019-02-06T19:43:37.077Z,101558.13
2019-02-06T19:46:03.984Z,101555.43
2019-02-06T19:48:55.888Z,101555.89
2019-02-06T19:51:23.046Z,101558.06
2019-02-06T19:53:50.170Z,101555.30
2019-02-06T19:56:17.244Z,101554.13
2019-02-06T19:58:44.058Z,101553.25
2019-02-06T20:01:10.902Z,101552.70
2019-02-06T20:03:37.897Z,101551.78
2019-02-06T20:06:05.740Z,101557.23
2019-02-06T20:08:33.894Z,101553.62
2019-02-06T20:11:00.881Z,101548.28
2019-02-06T20:13:28.468Z,101553.72
2019-02-06T20:15:55.766Z,101550.17
2019-02-06T20:18:22.707Z,101556.52
2019-02-06T20:20:49.453Z,101554.23
2019-02-06T20:23:16.551Z,101552.40
2019-02-06T20:25:43.700Z,101554.00
2019-02-06T20:28:10.592Z,101548.31
2019-02-06T20:30:59.122Z,101542.58
2019-02-06T20:33:25.940Z,101548.23
2019-02-06T20:35:52.672Z,101543.76
2019-02-06T20:38:19.623Z,101543.30
2019-02-06T20:40:46.511Z,101541.92
2019-02-06T20:43:21.775Z,101539.92
2019-02-06T20:45:42.112Z,101546.13
2019-02-06T20:51:00.381Z,101532.25
2019-02-06T20:53:27.420Z,101530.83
2019-02-06T20:55:54.178Z,101530.00
2019-02-06T20:58:21.147Z,101516.13
2019-02-06T21:00:48.553Z,101517.77
2019-02-06T21:03:15.400Z,101519.91
2019-02-06T21:05:44.531Z,101518.95
2019-02-06T21:08:12.184Z,101520.96
2019-02-06T21:10:39.396Z,101514.77
2019-02-06T21:13:06.228Z,101510.38
2019-02-06T21:15:33.165Z,101504.72
2019-02-06T21:18:00.048Z,101504.13
2019-02-06T21:20:27.328Z,101507.31
2019-02-06T21:22:54.253Z,101506.81
2019-02-06T21:25:21.172Z,101506.36
2019-02-06T21:27:49.196Z,101511.13
2019-02-06T21:30:35.765Z,101505.89
2019-02-06T21:33:02.742Z,101517.41
2019-02-06T21:35:30.041Z,101520.30
2019-02-06T21:37:57.212Z,101519.28
2019-02-06T21:40:25.982Z,101514.97
2019-02-06T21:42:52.972Z,101509.02
2019-02-06T21:45:19.827Z,101509.86
2019-02-06T21:47:47.136Z,101508.05
2019-02-06T21:50:21.546Z,101497.75
2019-02-06T21:52:48.407Z,101505.21
2019-02-06T21:55:16.081Z,101485.13
2019-02-06T22:00:37.150Z,101483.03
2019-02-06T22:03:25.547Z,101478.39
2019-02-06T22:05:52.428Z,101471.64
2019-02-06T22:08:19.656Z,101470.55
2019-02-06T22:10:47.691Z,101465.27
2019-02-06T22:13:14.610Z,101459.28
2019-02-06T22:15:41.555Z,101452.38
2019-02-06T22:18:08.948Z,101455.42
2019-02-06T22:20:35.808Z,101455.05
2019-02-06T22:23:03.036Z,101456.65
2019-02-06T22:25:30.684Z,101462.52
2019-02-06T22:27:57.496Z,101460.38
2019-02-06T22:30:25.950Z,101455.98
2019-02-06T22:32:52.806Z,101461.52
2019-02-06T22:35:21.896Z,101457.54
2019-02-06T22:37:48.739Z,101458.38
2019-02-06T22:40:17.263Z,101449.09
2019-02-06T22:42:44.184Z,101447.36
2019-02-06T22:45:14.084Z,101448.66
2019-02-06T22:47:40.939Z,101438.58
2019-02-06T22:50:09.629Z,101432.22
2019-02-06T22:52:39.024Z,101419.75
2019-02-06T22:55:06.973Z,101409.74
2019-02-06T22:57:33.845Z,101411.28
2019-02-06T23:00:00.895Z,101410.64
2019-02-06T23:02:27.761Z,101429.81
2019-02-06T23:04:54.638Z,101445.05
2019-02-06T23:07:21.649Z,101450.41
2019-02-06T23:09:50.297Z,101441.83
2019-02-06T23:12:17.292Z,101444.50
2019-02-06T23:14:44.228Z,101445.42
2019-02-06T23:17:11.097Z,101441.53
2019-02-06T23:19:38.330Z,101426.21
2019-02-06T23:22:05.073Z,101421.94
2019-02-06T23:24:31.810Z,101419.64
2019-02-06T23:26:58.984Z,101412.58
2019-02-06T23:29:25.901Z,101415.97
2019-02-06T23:31:52.987Z,101418.48
2019-02-06T23:34:19.797Z,101415.89
2019-02-06T23:36:46.591Z,101415.77
2019-02-06T23:39:33.082Z,101405.81
2019-02-06T23:41:59.945Z,101406.48
2019-02-06T23:44:28.881Z,101401.63
2019-02-06T23:46:56.259Z,101404.14
2019-02-06T23:49:24.368Z,101388.88
2019-02-06T23:51:51.237Z,101387.86
2019-02-06T23:54:18.210Z,101387.45
2019-02-06T23:56:45.415Z,101382.97
2019-02-06T23:59:13.058Z,101381.46
